Language selection

My Weather Profile Weather Topics  | 

Pacific - North Coast: Past 24 Hour Conditions

 

Middle Nomad - 46004

05:00 AM PDT 16 October 2021Buoy position: 50.93N 136.1W
Disclaimer

This table is a summary of hourly weather conditions for the past 24 hours.
Please note that these observations might not always be representative of weather conditions over their associated marine area.

Date / Time
(PDT)
Wind(knots) Wave height(m) Wave period(s) Pressure(kPa) Air tempC) Water tempC)
16 October 2021
5:00 SW 17 gust 22 2.4 11.0 100.4 10 12
4:00 SW 13 gust 17 2.3 11.0 100.4 10 12
3:00 WSW 16 gust 19 2.3 11.0 100.5 10 12
2:00 WSW 16 gust 19 2.2 8.0 100.5 10 12
1:00 SW 13 gust 17 2.4 10.0 100.5 9 12
0:00 SSW 16 gust 19 2.6 11.0 100.5 10 12
15 October 2021
23:00 SSW 22 gust 23 2.6 11.0 100.5 10 12
22:00 S 19 gust 23 2.4 10.0 100.6 11 12
21:00 S 13 gust 17 2.6 11.0 100.6 10 12
20:00 S 16 gust 17 2.4 11.0 100.7 10 12
19:00 SSW 13 gust 17 2.6 10.0 100.8 10 12
18:00 S 8 gust 12 2.9 12.0 100.8 10 12
17:00 SW 10 gust 13 2.6 10.0 100.9 9 12
16:00 SSW 12 gust 16 2.4 12.0 101.0 10 12
15:00 S 10 gust 12 2.6 12.0 101.0 10 12
14:00 SSE 10 gust 12 2.5 11.0 101.1 9 12
13:00 SE 4 gust 8 2.3 10.0 101.2 9 12
12:00 SE 4 gust 8 2.4 11.0 101.2 10 12
11:00 W 8 gust 12 2.6 12.0 101.3 8 12
10:00 E 2 gust 4 2.6 11.0 101.3 10 12
9:00 NNW 2 gust 4 2.9 11.0 101.2 9 12
8:00 N 4 gust 8 2.9 12.0 101.3 9 12
7:00 NW 6 gust 10 2.9 12.0 101.3 9 12
6:00 NW 4 gust 8 3.3 12.0 101.3 9 12
5:00 WNW 8 gust 12 3.3 12.0 101.2 9 12

Zoom-in to make a selection

Map of Pacific - North Coast marine weather areas Middle Nomad - 46004 South Nomad - 46036 Dixon Entrance Central - 46145 South Moresby - 46147 Nanakwa Shoal - 46181 North Hecate Strait - 46183 North Nomad - 46184 South Hecate Strait - 46185 West Sea Otter - 46204 West Dixon Entrance - 46205 East Dellwood - 46207 West Moresby - 46208 Sartine Island Cape St.James Kindakun Rocks Langara Island Masset Municipal Airport Rose Spit Sandspit Airport Bella Bella Airport Bella Coola Airport Bonilla Island Cathedral Point Cumshewa Island Grey Islet Holland Rock Lucy Islands Lightstation Prince Rupert Airport
Legend:
buoy Buoy
land station Land Station

Pacific - North Coast Area

Another Region

What we are doing

Date modified: